createdAt,value
2018-10-01T00:00:00.509Z,36.63
2018-10-01T00:02:28.994Z,33.98
2018-10-01T00:04:57.529Z,37.80
2018-10-01T00:07:26.019Z,38.53
2018-10-01T00:09:55.079Z,34.88
2018-10-01T00:12:24.162Z,34.33
2018-10-01T00:14:52.680Z,36.73
2018-10-01T00:17:21.145Z,34.73
2018-10-01T00:19:54.921Z,35.97
2018-10-01T00:22:28.682Z,33.33
2018-10-01T00:24:57.485Z,33.30
2018-10-01T00:27:27.255Z,35.78
2018-10-01T00:29:55.762Z,34.50
2018-10-01T00:32:24.495Z,33.60
2018-10-01T00:34:52.978Z,33.37
2018-10-01T00:37:21.481Z,33.57
2018-10-01T00:39:50.094Z,33.60
2018-10-01T00:42:18.903Z,34.30
2018-10-01T00:44:47.467Z,34.80
2018-10-01T00:52:12.154Z,35.87
2018-10-01T00:54:40.646Z,36.00
2018-10-01T00:57:09.137Z,36.53
2018-10-01T00:59:38.838Z,34.10
2018-10-01T01:02:07.337Z,36.40
2018-10-01T01:04:35.871Z,38.00
2018-10-01T01:07:04.436Z,39.30
2018-10-01T01:09:33.092Z,34.80
2018-10-01T01:12:01.939Z,36.45
2018-10-01T01:14:30.902Z,38.48
2018-10-01T01:16:59.435Z,35.15
2018-10-01T01:19:28.355Z,37.27
2018-10-01T01:21:56.893Z,40.20
2018-10-01T01:24:25.407Z,40.17
2018-10-01T01:26:54.127Z,38.20
2018-10-01T01:29:22.782Z,39.20
2018-10-01T01:31:51.425Z,39.60
2018-10-01T01:34:20.274Z,36.83
2018-10-01T01:36:49.227Z,37.60
2018-10-01T01:39:17.734Z,38.33
2018-10-01T01:41:46.240Z,35.50
2018-10-01T01:49:15.086Z,33.80
2018-10-01T01:51:43.584Z,32.57
2018-10-01T01:54:12.162Z,36.80
2018-10-01T01:56:40.734Z,37.23
2018-10-01T01:59:09.733Z,41.23
2018-10-01T02:01:38.274Z,40.63
2018-10-01T02:04:06.860Z,41.50
2018-10-01T02:06:35.392Z,43.73
2018-10-01T02:09:04.794Z,45.13
2018-10-01T02:11:33.378Z,44.00
2018-10-01T02:14:01.956Z,41.40
2018-10-01T02:16:30.475Z,43.42
2018-10-01T02:18:59.728Z,40.30
2018-10-01T02:21:28.317Z,43.67
2018-10-01T02:23:57.587Z,48.00
2018-10-01T02:26:26.125Z,49.10
2018-10-01T02:28:54.632Z,49.97
2018-10-01T02:31:23.186Z,45.93
2018-10-01T02:33:51.778Z,46.30
2018-10-01T02:36:21.137Z,47.03
2018-10-01T02:38:49.642Z,47.37
2018-10-01T02:41:18.772Z,50.73
2018-10-01T02:43:47.342Z,50.37
2018-10-01T02:46:17.394Z,52.30
2018-10-01T02:48:45.930Z,47.57
2018-10-01T02:56:13.073Z,50.33
2018-10-01T02:58:41.577Z,52.15
2018-10-01T03:01:10.089Z,51.37
2018-10-01T03:03:39.087Z,51.83
2018-10-01T03:06:07.640Z,55.57
2018-10-01T03:08:36.117Z,54.60
2018-10-01T03:11:04.682Z,55.87
2018-10-01T03:13:33.177Z,54.13
2018-10-01T03:16:01.929Z,53.80
2018-10-01T03:18:30.881Z,56.90
2018-10-01T03:20:59.399Z,53.73
2018-10-01T03:23:29.056Z,56.07
2018-10-01T03:25:57.893Z,53.40
2018-10-01T03:28:26.369Z,49.37
2018-10-01T03:30:54.857Z,50.43
2018-10-01T03:33:23.370Z,52.30
2018-10-01T03:35:52.046Z,53.60
2018-10-01T03:38:20.538Z,50.40
2018-10-01T03:40:49.046Z,53.53
2018-10-01T03:43:17.523Z,49.60
2018-10-01T03:45:46.098Z,46.70
2018-10-01T03:53:13.935Z,50.37
2018-10-01T03:55:42.418Z,49.07
2018-10-01T03:58:10.889Z,49.50
2018-10-01T04:00:39.407Z,48.70
2018-10-01T04:03:07.931Z,48.47
2018-10-01T04:05:36.438Z,50.40
2018-10-01T04:08:04.969Z,47.20
2018-10-01T04:10:33.497Z,48.20
2018-10-01T04:13:02.078Z,48.73
2018-10-01T04:15:30.937Z,46.68
2018-10-01T04:17:59.922Z,46.63
2018-10-01T04:20:28.492Z,48.20
2018-10-01T04:22:57.114Z,47.17
2018-10-01T04:25:25.578Z,42.97
2018-10-01T04:27:54.092Z,43.23
2018-10-01T04:30:22.599Z,42.50
2018-10-01T04:32:51.175Z,41.50
2018-10-01T04:35:19.746Z,39.13
2018-10-01T04:37:48.845Z,36.83
2018-10-01T04:40:17.482Z,35.13
2018-10-01T04:42:46.736Z,34.20
2018-10-01T04:50:15.596Z,33.00
2018-10-01T04:52:44.163Z,35.70
2018-10-01T04:55:12.807Z,37.20
2018-10-01T04:57:41.535Z,35.70
2018-10-01T05:00:10.351Z,38.97
2018-10-01T05:02:38.940Z,37.00
2018-10-01T05:05:07.543Z,38.88
2018-10-01T05:07:36.042Z,40.77
2018-10-01T05:10:04.683Z,39.60
2018-10-01T05:12:33.222Z,37.93
2018-10-01T05:15:01.719Z,36.30
2018-10-01T05:17:30.206Z,37.87
2018-10-01T05:19:59.666Z,35.40
2018-10-01T05:22:28.190Z,37.20
2018-10-01T05:24:58.654Z,35.93
2018-10-01T05:27:27.167Z,32.60
2018-10-01T05:29:56.758Z,34.47
2018-10-01T05:32:25.266Z,29.37
2018-10-01T05:34:53.923Z,33.87
2018-10-01T05:37:22.456Z,33.37
2018-10-01T05:39:51.121Z,34.57
2018-10-01T05:42:19.889Z,33.98
2018-10-01T05:44:49.283Z,35.68
2018-10-01T05:47:17.844Z,35.13
2018-10-01T05:49:46.410Z,35.70
2018-10-01T05:57:14.407Z,32.87
2018-10-01T05:59:42.925Z,32.40
2018-10-01T06:02:11.464Z,36.23
2018-10-01T06:04:40.044Z,34.73
2018-10-01T06:07:10.185Z,30.50
2018-10-01T06:09:38.677Z,32.33
2018-10-01T06:12:07.497Z,31.73
2018-10-01T06:14:36.719Z,31.27
2018-10-01T06:17:05.310Z,29.50
2018-10-01T06:19:33.926Z,28.95
2018-10-01T06:22:03.072Z,28.17
2018-10-01T06:24:34.635Z,32.13
2018-10-01T06:27:03.708Z,32.33
2018-10-01T06:29:32.587Z,32.17
2018-10-01T06:32:01.135Z,33.10
2018-10-01T06:34:29.705Z,32.80
2018-10-01T06:36:58.238Z,31.73
2018-10-01T06:39:27.377Z,33.37
2018-10-01T06:41:56.395Z,35.37
2018-10-01T06:44:25.299Z,35.78
2018-10-01T06:46:53.797Z,33.73
2018-10-01T06:49:23.635Z,32.70
2018-10-01T06:51:52.166Z,31.13
2018-10-01T06:54:20.736Z,27.58
2018-10-01T06:56:49.472Z,26.53
2018-10-01T06:59:18.026Z,26.10
2018-10-01T07:01:46.642Z,28.73
2018-10-01T07:09:16.700Z,26.00
2018-10-01T07:11:45.385Z,25.73
2018-10-01T07:19:09.331Z,28.17
2018-10-01T07:21:37.858Z,26.67
2018-10-01T07:24:06.939Z,27.87
2018-10-01T07:26:35.528Z,29.85
2018-10-01T07:29:04.042Z,25.37
2018-10-01T07:31:32.523Z,26.30
2018-10-01T07:34:01.071Z,26.00
2018-10-01T07:36:29.588Z,22.75
2018-10-01T07:38:58.845Z,19.23
2018-10-01T07:41:27.329Z,17.87
2018-10-01T07:43:55.809Z,17.87
2018-10-01T07:46:24.397Z,14.73
2018-10-01T07:48:53.283Z,14.90
2018-10-01T07:51:22.051Z,15.23
2018-10-01T07:53:51.208Z,17.47
2018-10-01T07:56:19.858Z,18.50
2018-10-01T07:58:48.441Z,16.70
2018-10-01T08:01:17.378Z,16.17
2018-10-01T08:03:45.928Z,15.90
2018-10-01T08:11:14.175Z,13.90
2018-10-01T08:13:42.651Z,13.97
2018-10-01T08:16:11.634Z,14.67
2018-10-01T08:18:40.218Z,17.33
2018-10-01T08:21:08.846Z,16.40
2018-10-01T08:23:37.771Z,18.03
2018-10-01T08:26:06.708Z,16.43
2018-10-01T08:28:35.226Z,16.00
2018-10-01T08:31:03.718Z,16.40
2018-10-01T08:33:32.277Z,16.80
2018-10-01T08:36:00.775Z,14.97
2018-10-01T08:38:29.407Z,15.93
2018-10-01T08:40:58.249Z,16.07
2018-10-01T08:43:26.983Z,16.77
2018-10-01T08:45:55.474Z,16.35
2018-10-01T08:48:25.010Z,16.15
2018-10-01T08:50:58.654Z,16.45
2018-10-01T08:53:37.530Z,18.23
2018-10-01T14:21:32.377Z,33.63
2018-10-01T14:24:01.181Z,34.77
2018-10-01T14:26:29.751Z,34.65
2018-10-01T14:28:59.509Z,36.97
2018-10-01T14:31:29.242Z,35.95
2018-10-01T14:33:57.950Z,35.47
2018-10-01T14:36:26.758Z,33.63
2018-10-01T14:38:55.350Z,34.83
2018-10-01T14:41:23.920Z,35.37
2018-10-01T14:43:53.167Z,35.87
2018-10-01T14:46:21.831Z,37.05
2018-10-01T14:48:50.373Z,35.40
2018-10-01T14:51:19.094Z,35.47
2018-10-01T14:53:47.724Z,34.40
2018-10-01T14:57:27.260Z,34.90
2018-10-01T14:59:56.051Z,34.50
2018-10-01T15:02:24.615Z,33.97
2018-10-01T15:04:53.219Z,35.87
2018-10-01T15:07:21.826Z,35.80
2018-10-01T15:09:50.347Z,34.87
2018-10-01T15:12:18.908Z,34.33
2018-10-01T15:14:47.487Z,32.65
2018-10-01T15:22:11.818Z,36.07
2018-10-01T15:24:40.409Z,34.53
2018-10-01T15:27:09.018Z,31.67
2018-10-01T15:29:37.681Z,30.63
2018-10-01T15:32:07.711Z,28.40
2018-10-01T15:34:36.245Z,33.80
2018-10-01T15:37:04.817Z,28.17
2018-10-01T15:39:33.507Z,26.87
2018-10-01T15:42:02.112Z,26.90
2018-10-01T15:44:30.646Z,26.48
2018-10-01T15:46:59.599Z,26.30
2018-10-01T15:49:28.205Z,27.30
2018-10-01T15:51:56.961Z,28.10
2018-10-01T15:54:25.546Z,23.70
2018-10-01T15:56:54.964Z,25.33
2018-10-01T15:59:23.873Z,25.30
2018-10-01T16:01:53.433Z,25.43
2018-10-01T16:04:22.026Z,24.90
2018-10-01T16:06:51.391Z,25.30
2018-10-01T16:09:20.273Z,26.17
2018-10-01T16:11:49.119Z,26.70
2018-10-01T16:14:18.137Z,27.13
2018-10-01T16:16:46.684Z,27.57
2018-10-01T16:26:52.126Z,25.67
2018-10-01T16:29:20.718Z,27.73
2018-10-01T16:31:49.399Z,25.20
2018-10-01T16:34:18.047Z,25.43
2018-10-01T16:36:46.703Z,26.57
2018-10-01T16:46:50.539Z,24.03
2018-10-01T16:49:19.967Z,27.47
2018-10-01T16:51:48.549Z,26.50
2018-10-01T16:54:17.588Z,23.15
2018-10-01T16:56:46.165Z,25.50
2018-10-01T17:04:15.558Z,23.40
2018-10-01T17:06:44.163Z,24.37
2018-10-01T17:09:12.707Z,24.47
2018-10-01T17:11:41.365Z,25.57
2018-10-01T17:14:09.870Z,27.63
2018-10-01T17:16:38.360Z,27.30
2018-10-01T17:19:07.214Z,28.13
2018-10-01T17:21:35.751Z,31.40
2018-10-01T17:24:04.327Z,27.43
2018-10-01T17:26:33.396Z,25.83
2018-10-01T17:29:01.971Z,21.77
2018-10-01T17:31:30.687Z,21.97
2018-10-01T17:34:01.440Z,22.40
2018-10-01T17:36:30.074Z,19.67
2018-10-01T17:38:59.907Z,17.50
2018-10-01T17:41:28.435Z,15.23
2018-10-01T17:43:56.952Z,16.53
2018-10-01T17:46:25.485Z,14.28
2018-10-01T17:48:54.986Z,14.00
2018-10-01T17:51:23.637Z,13.20
2018-10-01T17:53:52.487Z,14.80
2018-10-01T17:56:21.042Z,19.50
2018-10-01T17:58:49.610Z,19.57
2018-10-01T18:01:18.454Z,19.37
2018-10-01T18:03:47.029Z,25.30
2018-10-01T18:11:16.110Z,25.83
2018-10-01T18:13:44.608Z,27.43
2018-10-01T18:16:13.113Z,27.80
2018-10-01T18:18:41.723Z,34.63
2018-10-01T18:21:10.251Z,28.63
2018-10-01T18:23:38.747Z,26.00
2018-10-01T18:26:07.329Z,26.43
2018-10-01T18:28:36.270Z,25.40
2018-10-01T18:31:04.882Z,25.10
2018-10-01T18:33:35.174Z,23.27
2018-10-01T18:36:03.743Z,24.13
2018-10-01T18:38:32.282Z,22.10
2018-10-01T18:41:00.862Z,22.33
2018-10-01T18:43:29.697Z,22.60
2018-10-01T18:45:58.251Z,20.47
2018-10-01T18:48:26.823Z,20.73
2018-10-01T18:50:55.503Z,21.77
2018-10-01T18:53:24.066Z,23.20
2018-10-01T18:55:52.650Z,23.10
2018-10-01T18:58:21.302Z,21.73
2018-10-01T19:00:49.882Z,25.15
2018-10-01T19:03:18.576Z,23.90
2018-10-01T19:05:47.498Z,25.87
2018-10-01T19:08:17.421Z,27.13
2018-10-01T19:10:46.042Z,22.57
2018-10-01T19:18:11.410Z,21.53
2018-10-01T19:20:39.971Z,20.20
2018-10-01T19:23:08.611Z,18.32
2018-10-01T19:25:38.470Z,20.23
2018-10-01T19:28:06.994Z,17.70
2018-10-01T19:30:36.261Z,18.97
2018-10-01T19:33:04.845Z,17.20
2018-10-01T19:35:33.399Z,17.80
2018-10-01T19:38:02.044Z,18.83
2018-10-01T19:40:30.969Z,18.43
2018-10-01T19:42:59.547Z,18.93
2018-10-01T19:45:28.059Z,20.00
2018-10-01T19:47:56.681Z,16.67
2018-10-01T19:50:25.282Z,17.77
2018-10-01T19:52:53.956Z,17.97
2018-10-01T19:55:22.594Z,18.27
2018-10-01T19:57:51.206Z,22.50
2018-10-01T20:00:19.829Z,18.42
2018-10-01T20:02:49.022Z,18.10
2018-10-01T20:05:17.661Z,18.80
2018-10-01T20:07:47.379Z,16.07
2018-10-01T20:10:17.579Z,14.45
2018-10-01T20:12:46.984Z,15.03
2018-10-01T20:25:08.693Z,15.30
2018-10-01T20:27:37.332Z,16.20
2018-10-01T20:30:05.869Z,15.50
2018-10-01T20:32:34.826Z,15.80
2018-10-01T20:35:05.639Z,14.73
2018-10-01T20:37:34.346Z,15.13
2018-10-01T20:40:02.939Z,14.47
2018-10-01T20:42:31.622Z,14.68
2018-10-01T20:45:00.134Z,13.50
2018-10-01T20:47:29.182Z,17.90
2018-10-01T20:49:58.074Z,16.50
2018-10-01T20:52:26.794Z,14.50
2018-10-01T20:54:55.315Z,14.47
2018-10-01T20:57:23.901Z,15.30
2018-10-01T20:59:52.788Z,13.65
2018-10-01T21:02:21.429Z,12.96
2018-10-01T21:04:49.939Z,12.60
2018-10-01T21:07:18.901Z,13.40
2018-10-01T21:09:47.605Z,15.50
2018-10-01T21:17:09.158Z,14.30
2018-10-01T21:19:37.679Z,13.40
2018-10-01T21:22:06.457Z,13.33
2018-10-01T21:24:35.165Z,15.05
2018-10-01T21:27:03.663Z,12.30
2018-10-01T21:29:32.197Z,11.93
2018-10-01T21:32:01.352Z,12.50
2018-10-01T21:34:30.115Z,12.50
2018-10-01T21:36:58.658Z,12.30
2018-10-01T21:40:04.766Z,12.00
2018-10-01T21:42:33.298Z,12.30
2018-10-01T21:45:02.276Z,12.50
2018-10-01T21:47:31.542Z,13.00
2018-10-01T21:50:00.730Z,13.30
2018-10-01T21:52:29.769Z,13.90
2018-10-01T21:54:58.735Z,13.17
2018-10-01T21:57:27.337Z,13.40
2018-10-01T21:59:56.050Z,13.77
2018-10-01T22:02:24.651Z,13.50
2018-10-01T22:04:53.276Z,14.23
2018-10-01T22:07:22.654Z,14.00
2018-10-01T22:09:51.586Z,12.60
2018-10-01T22:12:20.115Z,13.33
2018-10-01T22:14:48.689Z,13.87
2018-10-01T22:17:18.697Z,13.78
2018-10-01T22:19:47.939Z,13.43
2018-10-01T22:22:17.487Z,14.63
2018-10-01T22:24:46.036Z,12.80
2018-10-01T22:32:15.558Z,11.73
2018-10-01T22:34:45.940Z,13.27
2018-10-01T22:42:12.639Z,13.33
2018-10-01T22:44:41.156Z,13.10
2018-10-01T22:47:09.730Z,14.30
2018-10-01T22:49:38.778Z,13.40
2018-10-01T22:52:07.310Z,13.90
2018-10-01T22:54:35.824Z,13.60
2018-10-01T22:57:04.442Z,13.65
2018-10-01T22:59:33.008Z,13.20
2018-10-01T23:02:01.519Z,12.53
2018-10-01T23:04:30.143Z,13.23
2018-10-01T23:06:58.745Z,13.90
2018-10-01T23:09:27.450Z,14.53
2018-10-01T23:11:56.367Z,14.93
2018-10-01T23:14:25.000Z,15.70
2018-10-01T23:16:54.107Z,15.00
2018-10-01T23:19:22.650Z,15.77
2018-10-01T23:21:51.154Z,15.53
2018-10-01T23:24:21.205Z,14.95
2018-10-01T23:26:49.731Z,16.20
2018-10-01T23:29:18.253Z,16.33
2018-10-01T23:31:46.856Z,15.40
2018-10-01T23:39:15.155Z,16.07
2018-10-01T23:41:43.673Z,14.67
2018-10-01T23:44:12.215Z,15.60
2018-10-01T23:46:41.001Z,16.77
2018-10-01T23:49:09.482Z,16.30
2018-10-01T23:51:38.021Z,15.63
2018-10-01T23:54:06.720Z,16.23
2018-10-01T23:56:35.254Z,15.77
2018-10-01T23:59:03.792Z,16.03
